Time;durP1;ratioP1;P1;durP2;ratioP2;P2;SDS_P1;SDS_P2;PMS_P1;PMS_P2;Temp;Humidity;BMP_temperature;BMP_pressure;BME280_temperature;BME280_humidity;BME280_pressure;Samples;Min_cycle;Max_cycle;Signal;HPM_P1;HPM_P2
2023/04/08 00:01:41;;;;;;;25.35;15.07;;;6.20;99.90;;;;;;5048433;28;20112;-43
2023/04/08 00:04:08;;;;;;;30.88;15.65;;;6.20;99.90;;;;;;5033327;28;20053;-49
2023/04/08 00:06:34;;;;;;;28.15;15.70;;;6.20;99.90;;;;;;5033370;28;20132;-47
2023/04/08 00:08:59;;;;;;;27.23;15.50;;;6.20;99.90;;;;;;5032886;28;20456;-43
2023/04/08 00:11:25;;;;;;;27.70;15.18;;;6.10;99.90;;;;;;5024937;28;20022;-43
2023/04/08 00:13:51;;;;;;;25.50;14.73;;;6.10;99.90;;;;;;5016259;28;20137;-43
2023/04/08 00:16:16;;;;;;;28.00;14.13;;;6.10;99.90;;;;;;5033087;28;20029;-45
2023/04/08 00:18:42;;;;;;;28.60;14.77;;;6.00;99.90;;;;;;5032633;28;20032;-44
2023/04/08 00:21:08;;;;;;;27.92;14.63;;;6.00;99.90;;;;;;5025261;28;20087;-43
2023/04/08 00:23:34;;;;;;;28.05;14.93;;;6.00;99.90;;;;;;5019284;28;20041;-43
2023/04/08 00:25:59;;;;;;;24.58;13.82;;;6.00;99.90;;;;;;5030383;28;20820;-46
2023/04/08 00:28:25;;;;;;;30.48;14.57;;;5.90;99.90;;;;;;5032215;28;20118;-42
2023/04/08 00:30:52;;;;;;;29.40;15.27;;;5.90;99.90;;;;;;5026969;28;20025;-47
2023/04/08 00:33:17;;;;;;;30.50;15.45;;;6.00;99.90;;;;;;5026964;28;20539;-44
2023/04/08 00:35:43;;;;;;;28.75;15.73;;;6.00;99.90;;;;;;5032385;28;20037;-47
2023/04/08 00:38:09;;;;;;;33.45;15.65;;;6.00;99.90;;;;;;5027717;28;20623;-45
2023/04/08 00:40:35;;;;;;;25.05;14.23;;;6.00;99.90;;;;;;5029991;28;20082;-44
2023/04/08 00:43:00;;;;;;;31.60;15.10;;;5.90;99.90;;;;;;5026443;28;20060;-44
2023/04/08 00:45:26;;;;;;;28.30;15.55;;;5.80;99.90;;;;;;5033640;28;20055;-48
2023/04/08 00:47:51;;;;;;;26.15;13.77;;;5.80;99.90;;;;;;5040498;28;20041;-44
2023/04/08 00:50:19;;;;;;;28.05;13.57;;;5.80;99.90;;;;;;5046448;28;20100;-46
2023/04/08 00:52:45;;;;;;;25.40;13.95;;;5.80;99.90;;;;;;5048967;28;20118;-46
2023/04/08 00:55:10;;;;;;;20.98;11.93;;;5.70;99.90;;;;;;5046421;28;20246;-50
2023/04/08 00:57:36;;;;;;;22.48;12.35;;;5.60;99.90;;;;;;5043999;28;20032;-44
2023/04/08 01:00:04;;;;;;;20.23;12.10;;;5.60;99.90;;;;;;5043350;28;20025;-43
2023/04/08 01:02:35;;;;;;;20.80;11.98;;;5.60;99.90;;;;;;5038347;28;20049;-44
2023/04/08 01:05:02;;;;;;;22.23;11.13;;;5.50;99.90;;;;;;5043461;28;20028;-43
2023/04/08 01:07:32;;;;;;;22.40;10.77;;;5.50;99.90;;;;;;5048500;28;20025;-46
2023/04/08 01:10:38;;;;;;;22.75;11.27;;;5.40;99.90;;;;;;5050654;28;20026;-43
2023/04/08 01:13:07;;;;;;;23.38;12.05;;;5.40;99.90;;;;;;5047607;28;20065;-46
2023/04/08 01:15:36;;;;;;;21.95;11.77;;;5.30;99.90;;;;;;5038929;28;20021;-44
2023/04/08 01:18:06;;;;;;;19.80;10.63;;;5.30;99.90;;;;;;5040913;28;20034;-43
2023/04/08 01:20:32;;;;;;;;;;;5.30;99.90;;;;;;5051864;28;20262;-44
2023/04/08 01:23:02;;;;;;;20.15;10.63;;;5.30;99.90;;;;;;5041345;28;19912;-45
2023/04/08 01:25:36;;;;;;;15.50;8.80;;;5.20;99.90;;;;;;5050192;28;20456;-48
2023/04/08 01:28:11;;;;;;;19.02;10.43;;;5.20;99.90;;;;;;5035336;28;20028;-46
2023/04/08 01:30:41;;;;;;;17.67;9.15;;;5.10;99.90;;;;;;5031782;28;20021;-45
2023/04/08 01:33:11;;;;;;;18.40;9.63;;;5.10;99.90;;;;;;5031107;28;20033;-44
2023/04/08 01:35:37;;;;;;;19.80;9.73;;;5.00;99.90;;;;;;5030244;28;20109;-44
2023/04/08 01:38:05;;;;;;;19.08;8.98;;;5.00;99.90;;;;;;5031691;28;20025;-47
2023/04/08 01:40:34;;;;;;;19.05;9.43;;;4.90;99.90;;;;;;5031561;28;20412;-44
2023/04/08 01:43:00;;;;;;;17.80;8.43;;;4.90;99.90;;;;;;5031724;28;20052;-46
2023/04/08 01:45:27;;;;;;;20.23;9.30;;;4.80;99.90;;;;;;5031422;28;20135;-49
2023/04/08 01:47:54;;;;;;;19.55;9.27;;;4.80;99.90;;;;;;5031673;28;20022;-45
2023/04/08 01:50:21;;;;;;;17.92;9.63;;;4.70;99.90;;;;;;5031479;28;20067;-45
2023/04/08 01:52:48;;;;;;;18.38;9.40;;;4.70;99.90;;;;;;5031427;28;20025;-44
2023/04/08 01:55:15;;;;;;;19.83;8.75;;;4.60;99.90;;;;;;5031461;28;20053;-46
2023/04/08 01:57:43;;;;;;;19.17;8.95;;;4.60;99.90;;;;;;5037894;28;20025;-44
2023/04/08 02:00:11;;;;;;;16.60;8.70;;;4.60;99.90;;;;;;5050367;28;20025;-44
2023/04/08 02:02:40;;;;;;;19.58;8.52;;;4.60;99.90;;;;;;5047564;28;20028;-43
2023/04/08 02:05:06;;;;;;;18.98;9.77;;;4.50;99.90;;;;;;5039063;28;20599;-48
2023/04/08 02:07:31;;;;;;;16.52;8.68;;;4.50;99.90;;;;;;5023448;28;20119;-46
2023/04/08 02:09:57;;;;;;;18.52;8.50;;;4.50;99.90;;;;;;5051117;28;20124;-44
2023/04/08 02:12:24;;;;;;;17.40;8.63;;;4.40;99.90;;;;;;5050952;28;20017;-49
2023/04/08 02:14:50;;;;;;;17.90;9.30;;;4.50;99.90;;;;;;5050373;28;20064;-44
2023/04/08 02:17:25;;;;;;;22.60;10.18;;;4.40;99.90;;;;;;5051101;28;20033;-52
2023/04/08 02:19:58;;;;;;;15.52;8.75;;;4.50;99.90;;;;;;5050998;28;20025;-43
2023/04/08 02:22:45;;;;;;;16.70;9.38;;;4.40;99.90;;;;;;5050861;28;20427;-46
2023/04/08 02:25:14;;;;;;;19.33;9.07;;;4.40;99.90;;;;;;5037958;28;20037;-43
2023/04/08 02:27:41;;;;;;;19.30;8.70;;;4.40;99.90;;;;;;5043908;28;20468;-44
2023/04/08 02:30:09;;;;;;;17.02;8.82;;;4.30;99.90;;;;;;5043686;28;20033;-44
2023/04/08 02:32:36;;;;;;;16.40;8.02;;;4.20;99.90;;;;;;5036621;28;20098;-48
2023/04/08 02:35:03;;;;;;;16.95;7.85;;;4.20;99.90;;;;;;5043514;28;20041;-47
2023/04/08 02:37:30;;;;;;;15.50;8.02;;;4.20;99.90;;;;;;5044182;28;20078;-44
2023/04/08 02:39:55;;;;;;;15.02;8.18;;;4.20;99.90;;;;;;5044603;28;20581;-43
2023/04/08 02:42:21;;;;;;;16.58;8.10;;;4.10;99.90;;;;;;5033510;28;20068;-47
2023/04/08 02:44:46;;;;;;;15.80;8.52;;;4.00;99.90;;;;;;5048175;28;20017;-43
2023/04/08 02:47:12;;;;;;;17.20;8.02;;;4.00;99.90;;;;;;5043095;28;20039;-49
2023/04/08 02:49:38;;;;;;;14.77;6.93;;;4.00;99.90;;;;;;5044990;28;20040;-42
2023/04/08 02:52:03;;;;;;;16.55;7.65;;;4.00;99.90;;;;;;5045180;28;20025;-43
2023/04/08 02:54:29;;;;;;;16.58;7.60;;;3.90;99.90;;;;;;5039248;28;20046;-44
2023/04/08 02:56:56;;;;;;;14.80;7.78;;;3.90;99.90;;;;;;5042662;28;20642;-43
2023/04/08 02:59:22;;;;;;;16.08;7.43;;;3.90;99.90;;;;;;5037804;28;20108;-43
2023/04/08 03:01:47;;;;;;;15.98;7.75;;;3.80;99.90;;;;;;5038156;28;20048;-47
2023/04/08 03:04:13;;;;;;;17.83;6.97;;;3.80;99.90;;;;;;5044116;28;20036;-48
2023/04/08 03:06:39;;;;;;;13.63;7.28;;;3.80;99.90;;;;;;5046448;28;20029;-43
2023/04/08 03:09:05;;;;;;;14.57;7.70;;;3.80;99.90;;;;;;5045417;28;20084;-45
2023/04/08 03:11:31;;;;;;;12.52;7.03;;;3.70;99.90;;;;;;5044497;28;20665;-43
2023/04/08 03:13:56;;;;;;;12.60;7.10;;;3.60;99.90;;;;;;5045028;28;20040;-42
2023/04/08 03:16:22;;;;;;;13.07;6.57;;;3.50;99.90;;;;;;5047535;28;20503;-41
2023/04/08 03:18:51;;;;;;;17.50;7.40;;;3.50;99.90;;;;;;5044198;28;20416;-47
2023/04/08 03:21:17;;;;;;;13.85;7.10;;;3.50;99.90;;;;;;5042650;28;20434;-52
2023/04/08 03:23:43;;;;;;;14.38;6.85;;;3.40;99.90;;;;;;5035357;28;20021;-44
2023/04/08 03:26:08;;;;;;;13.68;6.50;;;3.40;99.90;;;;;;5040827;28;20495;-45
2023/04/08 03:28:34;;;;;;;13.93;7.93;;;3.20;99.90;;;;;;5032243;28;20030;-43
2023/04/08 03:31:01;;;;;;;22.95;9.57;;;3.10;99.90;;;;;;5039466;28;20132;-53
2023/04/08 03:33:27;;;;;;;19.50;9.65;;;3.10;99.90;;;;;;5041999;28;20041;-43
2023/04/08 03:35:53;;;;;;;18.23;8.60;;;3.00;99.90;;;;;;5035840;28;20095;-43
2023/04/08 03:38:19;;;;;;;21.05;6.90;;;3.00;99.90;;;;;;5050205;28;20024;-43
2023/04/08 03:40:45;;;;;;;12.75;6.35;;;3.10;99.90;;;;;;5037773;28;20046;-47
2023/04/08 03:43:11;;;;;;;11.93;6.70;;;3.10;99.90;;;;;;5039776;28;20168;-47
2023/04/08 03:45:37;;;;;;;12.68;6.30;;;3.10;99.90;;;;;;5047540;28;20029;-53
2023/04/08 03:48:03;;;;;;;15.57;7.82;;;3.10;99.90;;;;;;5035408;28;20442;-45
2023/04/08 03:50:29;;;;;;;13.90;7.38;;;3.20;99.90;;;;;;5050974;28;20029;-47
2023/04/08 03:52:54;;;;;;;17.27;8.15;;;3.10;99.90;;;;;;5039461;28;20033;-53
2023/04/08 03:55:20;;;;;;;11.70;6.60;;;3.20;99.90;;;;;;5046932;28;20127;-43
2023/04/08 03:57:46;;;;;;;13.77;6.88;;;3.20;99.90;;;;;;5034873;28;20029;-43
2023/04/08 04:00:12;;;;;;;15.88;7.13;;;3.20;99.90;;;;;;5052625;28;20040;-48
2023/04/08 04:02:38;;;;;;;13.85;7.03;;;3.10;99.90;;;;;;5040047;28;20098;-47
2023/04/08 04:05:04;;;;;;;15.50;6.65;;;3.10;99.90;;;;;;5051123;28;20448;-43
2023/04/08 04:07:29;;;;;;;17.27;7.72;;;3.10;99.90;;;;;;5039773;28;20457;-47
2023/04/08 04:09:56;;;;;;;15.05;7.15;;;3.00;99.90;;;;;;5040420;28;20088;-43
2023/04/08 04:12:22;;;;;;;13.98;6.78;;;3.00;99.90;;;;;;5048261;28;20116;-43
2023/04/08 04:14:47;;;;;;;13.00;7.13;;;3.00;99.90;;;;;;5047530;28;20041;-42
2023/04/08 04:17:13;;;;;;;12.07;6.20;;;3.00;99.90;;;;;;5039011;28;20445;-44
2023/04/08 04:19:39;;;;;;;14.20;6.90;;;2.90;99.90;;;;;;5037846;28;20036;-47
2023/04/08 04:22:05;;;;;;;16.15;7.35;;;2.90;99.90;;;;;;5037790;28;20045;-43
2023/04/08 04:24:30;;;;;;;12.25;6.15;;;2.80;99.90;;;;;;5039997;28;20508;-47
2023/04/08 04:26:56;;;;;;;12.55;7.30;;;2.80;99.90;;;;;;5039924;28;20419;-48
2023/04/08 04:29:21;;;;;;;14.07;6.90;;;2.70;99.90;;;;;;5038159;28;20054;-43
2023/04/08 04:31:47;;;;;;;11.55;6.40;;;2.70;99.90;;;;;;5040869;28;20454;-45
2023/04/08 04:34:13;;;;;;;14.55;7.15;;;2.70;99.90;;;;;;5043553;28;20581;-46
2023/04/08 04:36:39;;;;;;;14.20;6.00;;;2.70;99.90;;;;;;5038238;28;20406;-45
2023/04/08 04:39:04;;;;;;;14.88;7.20;;;2.70;99.90;;;;;;5048637;28;20057;-47
2023/04/08 04:41:30;;;;;;;14.25;7.03;;;2.70;99.90;;;;;;5042023;28;20037;-45
2023/04/08 04:43:56;;;;;;;15.43;6.43;;;2.70;99.90;;;;;;5052815;28;20033;-43
2023/04/08 04:46:21;;;;;;;13.98;6.53;;;2.70;99.90;;;;;;5041396;28;20122;-44
2023/04/08 04:48:47;;;;;;;12.88;6.55;;;2.70;99.90;;;;;;5044671;28;20029;-43
2023/04/08 04:51:13;;;;;;;13.27;5.85;;;2.60;99.90;;;;;;5036210;28;20025;-48
2023/04/08 04:53:38;;;;;;;14.48;6.65;;;2.60;99.90;;;;;;5042337;28;20031;-49
2023/04/08 04:56:04;;;;;;;12.75;5.63;;;2.60;99.90;;;;;;5050916;28;20052;-43
2023/04/08 04:58:30;;;;;;;13.80;6.07;;;2.60;99.90;;;;;;5039968;28;20561;-50
2023/04/08 05:00:56;;;;;;;10.90;6.05;;;2.50;99.90;;;;;;5045779;28;20026;-43
2023/04/08 05:03:22;;;;;;;13.90;5.75;;;2.40;99.90;;;;;;5032401;28;20107;-49
2023/04/08 05:05:52;;;;;;;14.70;6.03;;;2.30;99.90;;;;;;5042612;28;20029;-48
2023/04/08 05:08:17;;;;;;;14.50;6.38;;;2.20;99.90;;;;;;5049565;28;20033;-45
2023/04/08 05:10:43;;;;;;;11.90;5.80;;;2.20;99.90;;;;;;5045813;28;20120;-48
2023/04/08 05:13:09;;;;;;;10.85;5.90;;;2.30;99.90;;;;;;5051720;28;20059;-44
2023/04/08 05:15:34;;;;;;;12.40;6.05;;;2.30;99.90;;;;;;5041093;28;20151;-43
2023/04/08 05:18:00;;;;;;;12.52;5.95;;;2.30;99.90;;;;;;5040058;28;20035;-42
2023/04/08 05:20:26;;;;;;;10.75;5.63;;;2.20;99.90;;;;;;5044526;28;20421;-42
2023/04/08 05:22:51;;;;;;;11.30;5.80;;;2.20;99.90;;;;;;5052008;28;20802;-42
2023/04/08 05:25:17;;;;;;;15.73;6.38;;;2.20;99.90;;;;;;5051976;28;20444;-42
2023/04/08 05:27:43;;;;;;;15.90;7.03;;;2.20;99.90;;;;;;5034355;28;20049;-42
2023/04/08 05:30:09;;;;;;;14.75;6.28;;;2.20;99.90;;;;;;5036062;28;20477;-43
2023/04/08 05:32:34;;;;;;;12.10;6.78;;;2.10;99.90;;;;;;5039541;28;20067;-42
2023/04/08 05:35:02;;;;;;;13.27;6.40;;;2.10;99.90;;;;;;5042128;28;20037;-42
2023/04/08 05:37:28;;;;;;;12.68;5.57;;;2.10;99.90;;;;;;5046256;28;20036;-42
2023/04/08 05:39:53;;;;;;;11.68;6.03;;;2.10;99.90;;;;;;5033397;28;20057;-43
2023/04/08 05:42:19;;;;;;;13.95;6.43;;;2.10;99.90;;;;;;5046054;28;20031;-43
2023/04/08 05:44:44;;;;;;;13.63;6.15;;;2.20;99.90;;;;;;5034865;28;20044;-42
2023/04/08 05:47:10;;;;;;;14.50;6.78;;;2.30;99.90;;;;;;5043957;28;20025;-43
2023/04/08 05:49:36;;;;;;;11.35;5.80;;;2.30;99.90;;;;;;5047804;28;20036;-43
2023/04/08 05:52:02;;;;;;;13.40;5.88;;;2.40;99.90;;;;;;5042019;28;20029;-44
2023/04/08 05:54:28;;;;;;;10.60;5.72;;;2.40;99.90;;;;;;5039648;28;20033;-44
2023/04/08 05:56:54;;;;;;;9.85;5.75;;;2.40;99.90;;;;;;5040271;28;20049;-43
2023/04/08 05:59:19;;;;;;;11.02;5.95;;;2.50;99.90;;;;;;5050544;28;20043;-43
2023/04/08 06:01:45;;;;;;;11.85;6.22;;;2.50;99.90;;;;;;5029677;28;20040;-46
2023/04/08 06:04:11;;;;;;;11.23;5.85;;;2.60;99.90;;;;;;5030837;28;20041;-43
2023/04/08 06:06:38;;;;;;;11.85;5.45;;;2.60;99.90;;;;;;5019987;28;20029;-43
2023/04/08 06:09:04;;;;;;;12.93;6.20;;;2.60;99.90;;;;;;5030849;28;20044;-43
2023/04/08 06:11:30;;;;;;;11.20;5.20;;;2.70;99.90;;;;;;5030119;28;20405;-46
2023/04/08 06:13:55;;;;;;;14.52;6.63;;;2.80;99.90;;;;;;5030523;28;20055;-43
2023/04/08 06:16:21;;;;;;;13.40;6.47;;;2.80;99.90;;;;;;5030015;28;20053;-43
2023/04/08 06:18:47;;;;;;;12.02;6.55;;;2.90;99.90;;;;;;5030784;28;20491;-43
2023/04/08 06:21:12;;;;;;;12.90;6.13;;;2.90;99.90;;;;;;5030092;28;20025;-44
2023/04/08 06:23:38;;;;;;;16.98;6.18;;;3.00;99.90;;;;;;5030636;28;20504;-46
2023/04/08 06:26:04;;;;;;;13.60;5.70;;;3.10;99.90;;;;;;5025042;28;20086;-43
2023/04/08 06:28:30;;;;;;;11.93;6.18;;;3.10;99.90;;;;;;5030531;28;20025;-50
2023/04/08 06:30:56;;;;;;;12.00;5.88;;;3.30;99.90;;;;;;5027837;28;20029;-43
2023/04/08 06:33:22;;;;;;;10.63;5.60;;;3.40;99.90;;;;;;5028948;28;20400;-46
2023/04/08 06:35:47;;;;;;;11.93;5.80;;;4.10;99.90;;;;;;5025546;28;20032;-42
2023/04/08 06:38:13;;;;;;;9.75;5.53;;;5.00;99.90;;;;;;5030574;28;20029;-46
2023/04/08 06:40:39;;;;;;;10.98;5.65;;;5.60;99.90;;;;;;5029837;28;20048;-43
2023/04/08 06:43:06;;;;;;;10.57;5.22;;;5.80;99.90;;;;;;5029025;28;20034;-44
2023/04/08 06:45:32;;;;;;;8.23;4.47;;;5.90;99.90;;;;;;5030450;28;20036;-43
2023/04/08 06:47:58;;;;;;;10.05;5.03;;;6.00;99.90;;;;;;5028712;28;20521;-46
2023/04/08 06:50:23;;;;;;;10.45;5.38;;;6.00;99.90;;;;;;5028133;28;20524;-45
2023/04/08 06:52:49;;;;;;;11.93;5.03;;;5.90;99.90;;;;;;5022783;28;20036;-44
2023/04/08 06:55:15;;;;;;;9.88;5.55;;;5.90;99.90;;;;;;5030118;28;20026;-46
2023/04/08 06:57:41;;;;;;;9.15;4.93;;;6.30;99.90;;;;;;5029718;28;20124;-49
2023/04/08 07:00:07;;;;;;;9.60;5.10;;;7.60;99.90;;;;;;5030349;28;20168;-45
2023/04/08 07:02:33;;;;;;;6.82;3.55;;;9.50;99.90;;;;;;5026168;28;20072;-49
2023/04/08 07:04:59;;;;;;;8.50;3.92;;;11.50;99.90;;;;;;5030742;28;20038;-44
2023/04/08 07:07:25;;;;;;;9.82;3.92;;;13.30;99.90;;;;;;5049220;28;20382;-48
2023/04/08 07:09:50;;;;;;;5.47;3.53;;;14.80;99.90;;;;;;5029832;28;20436;-44
2023/04/08 07:12:16;;;;;;;6.82;3.25;;;16.20;97.90;;;;;;5033049;28;20084;-45
2023/04/08 07:14:42;;;;;;;5.95;3.47;;;17.50;92.70;;;;;;5028798;28;20083;-46
2023/04/08 07:17:08;;;;;;;7.22;3.40;;;18.60;85.70;;;;;;5029147;28;20148;-44
2023/04/08 07:19:33;;;;;;;5.28;3.25;;;19.80;80.90;;;;;;5028557;28;20351;-43
2023/04/08 07:21:59;;;;;;;6.45;3.20;;;20.40;74.20;;;;;;5029405;28;20095;-49
2023/04/08 07:24:25;;;;;;;6.63;3.25;;;21.30;70.60;;;;;;5032423;28;20125;-44
2023/04/08 07:26:51;;;;;;;5.07;2.80;;;21.90;66.60;;;;;;5031295;28;20025;-43
2023/04/08 07:29:17;;;;;;;7.30;3.50;;;22.60;64.10;;;;;;5030855;28;20024;-44
2023/04/08 07:31:43;;;;;;;6.55;2.80;;;23.00;61.90;;;;;;5031555;28;20128;-43
2023/04/08 07:34:09;;;;;;;5.95;2.92;;;23.50;61.90;;;;;;5032292;28;20026;-42
2023/04/08 07:36:35;;;;;;;5.47;2.67;;;23.70;58.50;;;;;;5031915;28;20026;-46
2023/04/08 07:39:01;;;;;;;6.60;2.80;;;23.70;58.90;;;;;;5032142;28;20044;-43
2023/04/08 07:41:27;;;;;;;5.93;2.40;;;23.90;59.50;;;;;;5033427;28;20455;-42
2023/04/08 07:43:52;;;;;;;6.63;2.78;;;24.50;56.80;;;;;;5033841;28;20112;-47
2023/04/08 07:46:19;;;;;;;5.78;2.63;;;25.00;55.90;;;;;;5033908;28;20383;-43
2023/04/08 07:48:44;;;;;;;6.63;2.50;;;25.50;55.90;;;;;;5033908;28;20059;-43
2023/04/08 07:51:10;;;;;;;6.70;2.70;;;25.80;54.20;;;;;;5033646;28;20022;-44
2023/04/08 07:53:36;;;;;;;8.18;2.70;;;26.30;53.60;;;;;;5033459;28;20472;-43
2023/04/08 07:56:04;;;;;;;6.50;2.20;;;25.80;52.70;;;;;;5033646;28;20026;-44
2023/04/08 07:58:31;;;;;;;5.82;2.00;;;25.80;51.10;;;;;;5033458;28;20037;-45
2023/04/08 08:00:57;;;;;;;6.72;2.50;;;26.00;53.80;;;;;;5033522;28;20036;-45
2023/04/08 08:03:23;;;;;;;5.85;2.28;;;26.70;51.60;;;;;;5033461;28;20041;-46
2023/04/08 08:05:48;;;;;;;10.32;2.83;;;27.10;50.50;;;;;;5041548;28;20374;-45
2023/04/08 08:08:14;;;;;;;7.07;2.63;;;27.10;51.20;;;;;;5044490;28;20478;-44
2023/04/08 08:10:40;;;;;;;6.45;2.97;;;26.10;50.40;;;;;;5025498;28;20082;-43
2023/04/08 08:13:07;;;;;;;7.97;3.03;;;25.50;51.60;;;;;;5053356;28;20024;-48
2023/04/08 08:15:32;;;;;;;6.53;2.35;;;25.80;50.60;;;;;;5053567;28;20035;-43
2023/04/08 08:17:58;;;;;;;6.80;2.90;;;25.70;51.10;;;;;;5053492;28;20029;-45
2023/04/08 08:20:24;;;;;;;5.47;2.53;;;25.00;51.20;;;;;;5052978;28;20029;-43
2023/04/08 08:22:50;;;;;;;8.98;3.08;;;24.50;54.90;;;;;;5049117;28;20024;-43
2023/04/08 08:25:16;;;;;;;6.80;2.88;;;23.00;52.80;;;;;;5053049;28;20025;-43
2023/04/08 08:27:42;;;;;;;6.53;2.97;;;21.60;55.50;;;;;;5053012;28;20037;-42
2023/04/08 08:30:08;;;;;;;9.52;3.55;;;20.30;59.20;;;;;;5052977;28;20025;-46
2023/04/08 08:32:34;;;;;;;10.50;3.78;;;19.10;62.30;;;;;;5052936;28;20021;-43
2023/04/08 08:35:00;;;;;;;7.88;3.40;;;18.50;65.10;;;;;;5052129;28;20435;-43
2023/04/08 08:37:26;;;;;;;9.60;3.17;;;18.30;67.50;;;;;;5052793;28;20031;-43
2023/04/08 08:39:52;;;;;;;9.82;3.30;;;18.40;69.00;;;;;;5052836;28;20407;-45
2023/04/08 08:42:24;;;;;;;7.88;3.28;;;18.20;67.10;;;;;;5052678;28;20442;-42
2023/04/08 08:44:50;;;;;;;5.43;3.10;;;18.20;68.50;;;;;;5052864;28;20124;-42
2023/04/08 08:47:16;;;;;;;7.20;3.03;;;18.60;70.20;;;;;;5052622;28;20091;-46
2023/04/08 08:49:43;;;;;;;5.75;2.50;;;19.90;66.90;;;;;;5052535;28;20127;-47
2023/04/08 08:52:09;;;;;;;7.60;2.92;;;22.30;60.40;;;;;;5044105;28;20032;-43
2023/04/08 08:54:34;;;;;;;10.55;3.10;;;23.80;55.10;;;;;;5049724;28;20021;-42
2023/04/08 08:57:00;;;;;;;5.43;2.55;;;23.30;53.70;;;;;;5043667;28;20457;-50
2023/04/08 08:59:26;;;;;;;5.97;2.70;;;21.80;56.50;;;;;;5046990;28;20029;-43
2023/04/08 09:01:51;;;;;;;7.65;2.60;;;21.90;59.70;;;;;;5052348;28;20052;-45
2023/04/08 09:04:19;;;;;;;7.82;2.83;;;22.70;61.20;;;;;;5052349;28;20032;-43
2023/04/08 09:06:46;;;;;;;5.00;2.60;;;23.50;58.50;;;;;;5052132;28;20025;-44
2023/04/08 09:09:12;;;;;;;6.72;2.90;;;23.30;54.70;;;;;;5052331;28;20116;-44
2023/04/08 09:11:40;;;;;;;5.75;2.78;;;22.60;54.40;;;;;;5052260;28;20468;-43
2023/04/08 09:14:23;;;;;;;9.52;3.05;;;21.50;57.10;;;;;;5052415;28;20029;-42
2023/04/08 09:16:49;;;;;;;7.57;2.65;;;21.20;61.20;;;;;;5052081;28;20060;-43
2023/04/08 09:19:15;;;;;;;8.30;3.10;;;20.50;58.20;;;;;;5052245;28;20033;-46
2023/04/08 09:21:42;;;;;;;4.60;2.83;;;19.50;60.30;;;;;;5052034;28;20024;-43
2023/04/08 09:24:09;;;;;;;5.57;2.90;;;19.10;61.90;;;;;;5051935;28;20476;-42
2023/04/08 09:26:40;;;;;;;8.23;3.35;;;18.80;62.20;;;;;;5050051;28;20426;-43
2023/04/08 09:29:08;;;;;;;8.57;3.05;;;18.40;63.60;;;;;;5037608;28;20116;-43
2023/04/08 09:31:39;;;;;;;6.03;3.20;;;17.50;65.10;;;;;;5044149;28;20025;-42
2023/04/08 09:34:14;;;;;;;7.07;3.50;;;16.70;67.90;;;;;;5051759;28;20042;-42
2023/04/08 09:36:39;;;;;;;6.60;3.35;;;16.10;70.20;;;;;;5052403;28;20031;-42
2023/04/08 09:39:06;;;;;;;6.63;3.53;;;15.70;72.50;;;;;;5051563;28;20037;-42
2023/04/08 09:41:37;;;;;;;10.27;4.07;;;15.80;73.60;;;;;;5051488;28;20051;-43
2023/04/08 09:44:08;;;;;;;9.63;5.60;;;17.30;74.00;;;;;;5041735;28;20511;-43
2023/04/08 09:46:53;;;;;;;7.97;3.42;;;19.60;70.10;;;;;;5050702;28;20423;-43
2023/04/08 09:49:28;;;;;;;7.03;3.47;;;21.60;60.60;;;;;;5050086;28;20079;-45
2023/04/08 09:52:00;;;;;;;7.45;3.13;;;22.10;57.10;;;;;;5051586;28;20029;-47
2023/04/08 09:54:51;;;;;;;6.55;3.42;;;23.00;58.50;;;;;;5051257;28;20029;-43
2023/04/08 09:57:42;;;;;;;5.75;3.00;;;23.90;54.70;;;;;;5050942;28;20041;-44
2023/04/08 10:00:14;;;;;;;5.07;2.90;;;22.70;54.00;;;;;;5051447;28;20032;-44
2023/04/08 10:02:57;;;;;;;10.02;3.72;;;21.30;56.80;;;;;;5051424;28;20055;-43
2023/04/08 10:05:24;;;;;;;8.38;3.40;;;19.60;60.40;;;;;;5051100;28;20040;-43
2023/04/08 10:07:50;;;;;;;6.78;3.28;;;18.80;63.60;;;;;;5051405;28;20021;-43
2023/04/08 10:10:16;;;;;;;5.45;3.60;;;18.20;65.00;;;;;;5051456;28;20025;-43
2023/04/08 10:12:43;;;;;;;6.88;3.47;;;17.70;67.30;;;;;;5050990;28;20033;-44
2023/04/08 10:15:32;;;;;;;9.43;3.60;;;17.20;68.50;;;;;;5036985;28;20538;-45
2023/04/08 10:18:04;;;;;;;7.03;3.50;;;16.80;71.80;;;;;;5051139;28;20035;-43
2023/04/08 10:20:32;;;;;;;9.07;3.97;;;16.20;70.40;;;;;;5051058;28;20033;-44
2023/04/08 10:22:58;;;;;;;9.87;4.17;;;15.60;72.00;;;;;;5051097;28;20029;-47
2023/04/08 10:25:35;;;;;;;5.88;3.22;;;15.00;74.80;;;;;;5051103;28;20312;-43
2023/04/08 10:28:10;;;;;;;10.80;3.75;;;14.90;76.20;;;;;;5050916;28;20082;-42
2023/04/08 10:30:49;;;;;;;4.88;3.05;;;14.70;77.40;;;;;;5050754;28;20387;-42
2023/04/08 10:33:28;;;;;;;7.18;3.15;;;14.80;77.80;;;;;;5040937;28;20025;-43
2023/04/08 10:35:54;;;;;;;;;;;16.00;76.50;;;;;;5050724;28;20029;-46
2023/04/08 10:38:21;;;;;;;6.45;2.63;;;16.50;73.40;;;;;;5028891;28;20007;-43
2023/04/08 10:40:48;;;;;;;8.35;3.35;;;16.50;70.40;;;;;;5043138;28;20125;-43
2023/04/08 10:43:15;;;;;;;6.22;2.70;;;16.50;72.00;;;;;;5033067;28;20040;-42
2023/04/08 10:45:42;;;;;;;4.82;2.75;;;16.30;69.30;;;;;;5031767;28;20396;-43
2023/04/08 10:48:19;;;;;;;5.30;2.85;;;16.10;72.20;;;;;;5026349;28;20059;-46
2023/04/08 10:50:56;;;;;;;4.70;2.30;;;16.30;68.40;;;;;;5031110;28;20485;-44
2023/04/08 10:53:29;;;;;;;6.40;1.95;;;16.60;67.60;;;;;;5029983;28;20116;-43
2023/04/08 10:56:13;;;;;;;5.90;1.90;;;17.00;73.70;;;;;;5027461;28;20041;-42
2023/04/08 10:58:49;;;;;;;5.28;1.80;;;18.20;65.90;;;;;;5027079;28;20510;-42
2023/04/08 11:01:15;;;;;;;4.05;1.85;;;18.20;63.00;;;;;;5028771;28;20033;-43
2023/04/08 11:03:42;;;;;;;6.20;1.95;;;18.40;62.60;;;;;;5027760;28;20045;-46
2023/04/08 11:06:07;;;;;;;3.42;1.67;;;18.60;65.10;;;;;;5036385;28;20389;-43
2023/04/08 11:08:35;;;;;;;5.43;1.52;;;18.70;61.80;;;;;;5046851;28;20505;-43
2023/04/08 11:11:02;;;;;;;3.72;1.60;;;18.90;62.80;;;;;;5041969;28;20100;-43
2023/04/08 11:13:29;;;;;;;6.07;2.03;;;18.50;58.90;;;;;;5034127;28;20033;-44
2023/04/08 11:15:58;;;;;;;3.38;1.70;;;17.90;62.70;;;;;;5045480;28;20025;-42
2023/04/08 11:18:25;;;;;;;4.80;1.85;;;17.20;62.50;;;;;;5050274;28;20031;-42
2023/04/08 11:20:51;;;;;;;4.80;2.08;;;16.90;63.20;;;;;;5030007;28;20495;-46
2023/04/08 11:23:17;;;;;;;7.78;2.15;;;17.10;62.90;;;;;;5023631;28;20037;-46
2023/04/08 11:25:44;;;;;;;4.60;1.88;;;16.90;63.90;;;;;;5012087;28;20056;-43
2023/04/08 11:28:11;;;;;;;3.38;1.50;;;16.70;64.60;;;;;;5029926;28;20049;-42
2023/04/08 11:30:39;;;;;;;4.32;1.40;;;16.80;64.80;;;;;;5029120;28;20381;-42
2023/04/08 11:33:05;;;;;;;3.38;1.45;;;17.50;66.70;;;;;;5029536;28;20045;-43
2023/04/08 11:35:31;;;;;;;5.70;1.48;;;18.30;64.70;;;;;;5017356;28;20092;-43
2023/04/08 11:37:57;;;;;;;4.63;1.67;;;18.40;60.60;;;;;;5019310;28;20026;-43
2023/04/08 11:40:25;;;;;;;5.18;1.60;;;18.30;60.60;;;;;;5029964;28;20061;-43
2023/04/08 11:42:51;;;;;;;2.97;1.48;;;18.90;61.30;;;;;;5030000;28;20501;-44
2023/04/08 11:45:18;;;;;;;4.88;1.80;;;19.80;61.30;;;;;;5030261;28;20120;-43
2023/04/08 11:47:46;;;;;;;4.32;1.40;;;20.30;58.20;;;;;;5028820;28;20595;-43
2023/04/08 11:50:12;;;;;;;4.43;1.40;;;21.30;57.70;;;;;;5029698;28;20057;-43
2023/04/08 11:52:48;;;;;;;4.82;1.60;;;23.00;52.70;;;;;;5029769;28;20034;-44
2023/04/08 11:55:28;;;;;;;3.67;1.48;;;23.30;50.20;;;;;;5029729;28;20029;-44
2023/04/08 11:57:55;;;;;;;3.90;1.38;;;22.00;50.30;;;;;;5029038;28;20029;-45
2023/04/08 12:00:21;;;;;;;3.55;1.45;;;21.40;52.60;;;;;;5029446;28;20045;-44
2023/04/08 12:02:47;;;;;;;4.40;1.60;;;20.90;53.60;;;;;;5029843;28;20076;-44
2023/04/08 12:05:14;;;;;;;3.30;1.30;;;21.20;56.40;;;;;;5032676;28;20037;-43
2023/04/08 12:07:41;;;;;;;4.07;1.48;;;21.70;56.80;;;;;;5033170;28;20024;-48
2023/04/08 12:10:07;;;;;;;4.15;1.42;;;22.60;51.90;;;;;;5046061;28;20082;-44
2023/04/08 12:12:33;;;;;;;3.38;1.60;;;23.10;52.50;;;;;;5046584;28;20060;-44
2023/04/08 12:14:58;;;;;;;6.38;3.25;;;24.40;48.90;;;;;;5047003;28;20052;-43
2023/04/08 12:17:24;;;;;;;6.97;3.63;;;24.30;51.00;;;;;;5049961;28;20523;-43
2023/04/08 12:19:50;;;;;;;6.60;3.33;;;22.70;53.20;;;;;;5034555;28;20120;-51
2023/04/08 12:22:15;;;;;;;9.57;3.70;;;21.20;58.30;;;;;;5040184;28;20494;-47
2023/04/08 12:24:41;;;;;;;7.40;3.63;;;20.30;59.20;;;;;;5034694;28;20061;-44
2023/04/08 12:27:07;;;;;;;7.13;3.78;;;19.40;61.30;;;;;;5032709;28;20061;-44
2023/04/08 12:29:32;;;;;;;5.22;3.38;;;18.30;62.50;;;;;;5032615;28;20056;-44
2023/04/08 12:31:58;;;;;;;6.18;3.00;;;18.30;65.40;;;;;;5033087;28;20040;-46
2023/04/08 12:34:24;;;;;;;6.55;3.70;;;18.00;65.20;;;;;;5032764;28;20084;-43
2023/04/08 12:36:49;;;;;;;6.40;3.90;;;17.10;66.50;;;;;;5032515;28;20083;-45
2023/04/08 12:39:15;;;;;;;5.55;3.40;;;16.20;68.80;;;;;;5032200;28;20021;-44
2023/04/08 12:41:41;;;;;;;9.90;3.80;;;16.70;71.30;;;;;;5032290;28;20091;-50
2023/04/08 12:44:06;;;;;;;9.30;3.45;;;18.10;68.50;;;;;;5032204;28;20037;-45
2023/04/08 12:46:32;;;;;;;6.63;3.03;;;19.10;63.00;;;;;;5032844;28;20451;-46